Latest Weather Observations for Karratha

IDW60801

Issued at 2:33 pm WST Saturday 3 December 2016 (issued every 30 minutes, with the page automatically refreshed every 10 minutes)

About weather observations | Map of weather stations | Latest weather observations for WA | Other Formats
Station Details ID: 004083 Name: KARRATHA AERO Lat: -20.71 Lon: 116.77 Height: 5.3 m
Data from the previous 72 hours. | See also: Recent months at Karratha
Date/Time
WST
Temp
°C
App
Temp
°C
Dew
Point
°C
Rel
Hum
%
Delta-T
°C
Wind Press
QNH
hPa
Press
MSL
hPa
Rain since
9am
mm
Dir  Spd
km/h
Gust
km/h
Spd
kts
Gust
kts
03/02:00pm 31.3 30.3 22.0 57 6.3 WNW 30 39 16 21 1006.6 1006.6 0.0
03/01:30pm 31.4 31.0 22.4 59 6.1 NW 28 37 15 20 1006.8 1006.8 0.0
03/01:00pm 31.5 30.9 21.9 56 6.5 WNW 28 33 15 18 1006.9 1006.9 0.0
03/12:30pm 31.4 29.1 18.4 46 8.4 WNW 28 35 15 19 1007.0 1007.0 0.0
03/12:00pm 31.8 31.6 21.3 53 7.1 NW 24 32 13 17 1007.1 1007.1 0.0
03/11:30am 31.6 31.9 21.5 55 6.8 WNW 22 30 12 16 1007.0 1007.0 0.0
03/11:00am 31.2 32.2 22.2 58 6.1 NW 20 26 11 14 1007.3 1007.3 0.0
03/10:30am 30.8 31.0 22.1 59 5.9 NW 24 30 13 16 1007.6 1007.6 0.0
03/10:00am 30.4 30.3 20.0 53 6.9 WNW 20 26 11 14 1007.7 1007.7 0.0
03/09:30am 29.3 29.1 20.5 59 5.8 W 22 28 12 15 1007.5 1007.5 0.0
03/09:00am 29.1 28.3 20.8 61 5.5 W 26 30 14 16 1007.5 1007.5 0.0
03/08:30am 28.3 27.5 20.8 63 5.0 WSW 26 30 14 16 1007.3 1007.3 0.0
03/08:00am 27.2 25.1 21.0 69 4.1 WSW 33 41 18 22 1007.0 1007.0 0.0
03/07:30am 26.5 25.0 22.1 77 3.0 WSW 33 43 18 23 1007.0 1007.0 0.0
03/07:00am 25.9 26.1 22.8 83 2.1 WSW 26 32 14 17 1007.2 1007.2 0.0
03/06:30am 25.4 24.5 22.9 86 1.7 WSW 32 37 17 20 1006.6 1006.6 0.0
03/06:00am 25.1 24.8 23.2 89 1.3 WSW 30 35 16 19 1006.3 1006.3 0.0
03/05:30am 25.0 25.7 23.6 92 1.0 WSW 26 32 14 17 1006.0 1006.0 0.0
03/05:00am 25.3 26.8 24.3 94 0.7 W 24 32 13 17 1006.0 1006.0 0.0
03/04:30am 25.8 26.6 23.8 89 1.4 WSW 26 35 14 19 1005.8 1005.8 0.0
03/04:00am 26.0 26.5 24.0 89 1.4 WSW 28 33 15 18 1006.0 1006.0 0.0
03/03:30am 26.3 26.7 23.8 86 1.7 W 28 33 15 18 1005.8 1005.8 0.0
03/03:00am 26.1 26.3 24.1 89 1.4 W 30 35 16 19 1005.7 1005.6 0.0
03/02:30am 26.0 27.2 23.9 88 1.4 WSW 24 30 13 16 1005.8 1005.8 0.0
03/02:00am 26.2 26.3 23.3 84 2.0 WSW 28 35 15 19 1005.8 1005.8 0.0
03/01:30am 26.2 26.8 24.1 88 1.4 W 28 33 15 18 1005.9 1005.9 0.0
03/01:00am 26.1 27.7 24.5 91 1.1 WSW 24 30 13 16 1006.0 1006.0 0.0
03/12:30am 26.4 26.3 24.2 88 1.5 W 32 37 17 20 1006.1 1006.1 0.0
03/12:00am 26.6 26.6 24.4 88 1.5 W 32 39 17 21 1006.3 1006.3 0.0
 
Date/Time
WST
Temp
°C
App
Temp
°C
Dew
Point
°C
Rel
Hum
%
Delta-T
°C
Wind Press
QNH
hPa
Press
MSL
hPa
Rain since
9am
mm
Dir  Spd
km/h
Gust
km/h
Spd
kts
Gust
kts
02/11:30pm 26.5 26.6 24.5 89 1.4 W 32 39 17 21 1006.3 1006.3 0.0
02/11:00pm 26.7 27.0 24.9 90 1.3 W 32 39 17 21 1006.3 1006.3 0.0
02/10:30pm 26.8 26.9 24.8 89 1.4 W 33 39 18 21 1006.4 1006.4 0.0
02/10:00pm 27.0 27.1 24.6 87 1.7 W 32 39 17 21 1006.4 1006.4 0.0
02/09:30pm 27.2 27.2 24.7 86 1.7 W 33 39 18 21 1006.2 1006.2 0.0
02/09:00pm 27.2 26.4 24.7 86 1.7 W 37 43 20 23 1005.9 1005.9 0.0
02/08:30pm 27.5 27.3 24.1 82 2.3 W 32 39 17 21 1005.8 1005.8 0.0
02/08:00pm 27.8 27.1 23.2 76 3.1 W 32 41 17 22 1005.7 1005.6 0.0
02/07:30pm 28.0 27.7 23.2 75 3.3 WNW 30 37 16 20 1005.5 1005.4 0.0
02/07:00pm 27.9 28.6 23.7 78 2.9 WNW 26 33 14 18 1005.3 1005.2 0.0
02/06:30pm 28.1 27.8 23.2 74 3.3 WNW 30 37 16 20 1005.0 1004.9 0.0
02/06:00pm 28.7 28.7 23.8 75 3.4 WNW 30 39 16 21 1004.7 1004.6 0.0
02/05:30pm 29.3 29.7 24.4 75 3.4 WNW 30 37 16 20 1004.5 1004.4 0.0
02/05:00pm 31.3 30.9 23.7 64 5.3 W 32 39 17 21 1004.4 1004.3 0.0
02/04:30pm 31.6 31.7 24.0 64 5.3 WNW 30 37 16 20 1004.3 1004.2 0.0
02/04:00pm 31.3 30.1 22.6 60 6.0 WNW 33 43 18 23 1004.1 1004.0 0.0
02/03:30pm 31.6 31.3 24.2 65 5.2 WNW 33 41 18 22 1004.2 1004.1 0.0
02/03:00pm 31.9 30.9 22.6 58 6.4 WNW 32 35 17 19 1004.6 1004.5 0.0
02/02:30pm 31.2 30.4 23.3 63 5.4 WNW 33 44 18 24 1004.7 1004.6 0.0
02/02:00pm 31.8 30.4 22.2 56 6.6 WNW 33 41 18 22 1005.1 1005.0 0.0
02/01:30pm 32.0 30.8 22.7 58 6.4 NW 33 41 18 22 1005.5 1005.4 0.0
02/01:00pm 33.0 31.6 21.2 50 8.0 NW 30 35 16 19 1005.6 1005.5 0.0
02/12:30pm 32.5 30.5 20.7 49 7.9 WNW 32 39 17 21 1005.7 1005.6 0.0
02/12:00pm 32.4 31.4 21.3 52 7.5 WNW 28 33 15 18 1005.7 1005.6 0.0
02/11:30am 32.5 31.8 21.0 50 7.7 WNW 26 30 14 16 1005.8 1005.8 0.0
02/11:00am 33.4 33.2 20.5 46 8.6 WNW 22 28 12 15 1006.0 1006.0 0.0
02/10:30am 32.5 30.4 19.0 44 8.8 W 28 32 15 17 1006.1 1006.1 0.0
02/10:00am 30.4 28.5 19.4 51 7.2 W 28 33 15 18 1006.2 1006.2 0.0
02/09:30am 30.1 29.2 19.8 54 6.8 WNW 24 30 13 16 1006.6 1006.6 0.0
02/09:00am 28.9 27.8 19.5 57 6.1 W 24 28 13 15 1006.7 1006.7 0.0
02/08:30am 28.3 27.1 19.2 57 5.9 W 24 30 13 16 1006.7 1006.7 0.0
02/08:00am 27.6 26.2 18.9 59 5.6 W 24 30 13 16 1006.7 1006.7 0.0
02/07:30am 26.5 24.5 19.1 64 4.8 W 28 32 15 17 1006.6 1006.6 0.0
02/07:00am 25.7 23.3 19.1 67 4.2 W 30 35 16 19 1006.5 1006.5 0.0
02/06:30am 25.3 23.0 19.4 70 3.8 W 30 35 16 19 1006.1 1006.1 0.0
02/06:00am 25.1 23.1 19.2 70 3.8 W 28 33 15 18 1006.0 1006.0 0.0
02/05:30am 24.9 22.5 19.1 70 3.7 WSW 30 35 16 19 1005.8 1005.8 0.0
02/05:00am 25.2 22.8 19.1 69 3.9 WSW 30 35 16 19 1005.6 1005.5 0.0
02/04:30am 25.5 22.8 19.2 68 4.0 W 32 39 17 21 1005.4 1005.3 0.0
02/04:00am 25.9 24.8 20.2 71 3.7 WSW 26 32 14 17 1005.2 1005.1 0.0
02/03:30am 26.1 25.2 20.7 72 3.5 WSW 26 33 14 18 1005.1 1005.0 0.0
02/03:00am 26.3 27.1 23.2 83 2.1 WSW 24 30 13 16 1005.1 1005.0 0.0
02/02:30am 26.5 26.3 23.4 83 2.1 WSW 30 37 16 20 1005.1 1005.0 0.0
02/02:00am 26.8 25.6 22.6 78 2.8 WSW 33 43 18 23 1005.0 1004.9 0.0
02/01:30am 27.2 26.2 21.2 69 4.0 WSW 28 37 15 20 1005.1 1005.0 0.0
02/01:00am 27.2 26.4 21.7 72 3.7 WSW 28 35 15 19 1005.2 1005.1 0.0
02/12:30am 27.5 26.9 22.7 75 3.3 WSW 30 37 16 20 1005.3 1005.2 0.0
02/12:00am 27.3 26.5 23.1 78 2.9 WSW 32 37 17 20 1005.6 1005.5 0.0
 
Date/Time
WST
Temp
°C
App
Temp
°C
Dew
Point
°C
Rel
Hum
%
Delta-T
°C
Wind Press
QNH
hPa
Press
MSL
hPa
Rain since
9am
mm
Dir  Spd
km/h
Gust
km/h
Spd
kts
Gust
kts
01/11:30pm 27.6 27.2 23.0 76 3.1 WSW 30 35 16 19 1006.0 1006.0 0.0
01/11:00pm 27.8 26.4 23.0 75 3.3 WSW 35 43 19 23 1005.9 1005.9 0.0
01/10:30pm 28.1 27.2 22.8 73 3.6 WSW 32 39 17 21 1006.0 1006.0 0.0
01/10:00pm 28.4 28.3 22.9 72 3.8 WSW 28 35 15 19 1006.1 1006.1 0.0
01/09:30pm 28.5 27.9 22.0 68 4.4 W 28 33 15 18 1005.9 1005.9 0.0
01/09:00pm 28.7 28.2 22.2 68 4.4 WSW 28 37 15 20 1005.7 1005.6 0.0
01/08:30pm 28.8 28.1 22.5 68 4.3 WSW 30 37 16 20 1005.4 1005.3 0.0
01/08:00pm 29.2 27.2 21.2 62 5.4 W 33 41 18 22 1005.2 1005.1 0.0
01/07:30pm 29.1 27.7 22.3 66 4.6 W 33 43 18 23 1004.8 1004.7 0.0
01/07:00pm 29.8 27.1 21.2 60 5.8 W 37 46 20 25 1004.3 1004.2 0.0
01/06:30pm 30.2 27.4 20.2 55 6.6 W 35 43 19 23 1003.8 1003.7 0.0
01/06:00pm 31.0 28.2 20.3 53 7.1 W 35 43 19 23 1003.6 1003.5 0.0
01/05:30pm 31.9 28.8 20.5 51 7.6 W 37 43 20 23 1003.6 1003.5 0.0
01/05:00pm 32.5 28.1 19.4 46 8.6 W 41 46 22 25 1003.3 1003.2 0.0
01/04:30pm 32.8 29.4 20.7 49 8.1 W 39 44 21 24 1003.2 1003.1 0.0
01/04:00pm 33.0 30.1 21.5 50 7.8 W 39 44 21 24 1003.4 1003.3 0.0
01/03:30pm 33.6 31.4 21.4 48 8.3 W 35 43 19 23 1003.6 1003.5 0.0
01/03:00pm 34.6 31.2 18.2 37 10.7 WNW 33 43 18 23 1003.9 1003.8 0.0
01/02:30pm 34.1 31.8 20.1 43 9.3 WNW 32 39 17 21 1004.2 1004.1 0.0
01/02:00pm 35.4 32.9 19.7 39 10.5 WNW 32 37 17 20 1004.4 1004.3 0.0
01/01:30pm 35.1 33.8 21.4 45 9.3 WNW 30 35 16 19 1004.7 1004.6 0.0
01/01:00pm 35.0 34.2 21.6 45 9.1 WNW 28 35 15 19 1005.0 1004.9 0.0
01/12:30pm 36.6 34.6 19.1 35 11.6 WNW 28 35 15 19 1005.3 1005.2 0.0
01/12:00pm 36.4 35.9 22.2 44 9.8 WNW 28 35 15 19 1005.5 1005.4 0.0
01/11:30am 37.0 36.5 20.7 38 11.0 WNW 24 30 13 16 1005.7 1005.6 0.0
01/11:00am 36.6 35.3 19.1 35 11.6 WNW 24 32 13 17 1006.1 1006.1 0.0
01/10:30am 36.5 33.2 13.9 26 13.9 W 24 28 13 15 1006.5 1006.5 0.0
01/10:00am 35.5 34.0 17.7 35 11.5 WNW 22 26 12 14 1006.9 1006.9 0.0
01/09:30am 34.3 32.2 15.2 31 11.9 WNW 20 24 11 13 1007.1 1007.1 0.0
01/09:00am 33.3 31.2 16.2 36 10.8 W 22 28 12 15 1007.2 1007.2 0.0
01/08:30am 31.6 30.1 16.7 40 9.4 W 20 24 11 13 1007.5 1007.5 0.0
01/08:00am 29.9 28.1 17.0 45 8.1 W 22 26 12 14 1007.4 1007.4 0.0
01/07:30am 28.9 27.0 16.8 48 7.6 W 22 26 12 14 1007.4 1007.4 0.0
01/07:00am 28.1 25.7 15.4 46 7.8 WSW 22 28 12 15 1007.0 1007.0 0.0
01/06:30am 27.7 25.5 16.0 49 7.2 WSW 22 26 12 14 1006.9 1006.9 0.0
01/06:00am 26.9 24.8 16.2 52 6.6 WSW 22 28 12 15 1006.5 1006.5 0.0
01/05:30am 26.5 24.5 16.4 53 6.2 WSW 22 26 12 14 1006.3 1006.3 0.0
01/05:00am 26.7 25.7 17.5 57 5.8 WSW 19 24 10 13 1006.4 1006.4 0.0
01/04:30am 27.2 25.7 17.7 56 6.0 WSW 22 28 12 15 1006.4 1006.4 0.0
01/04:00am 27.5 26.6 19.0 59 5.5 WSW 22 26 12 14 1006.2 1006.2 0.0
01/03:30am 27.8 27.2 19.8 61 5.2 W 22 28 12 15 1006.0 1006.0 0.0
01/03:00am 27.5 27.8 20.8 67 4.4 W 20 26 11 14 1006.1 1006.1 0.0
01/02:30am 27.6 27.9 21.6 70 4.0 WSW 22 26 12 14 1006.0 1006.0 0.0
01/02:00am 28.1 27.8 21.9 69 4.2 WSW 26 32 14 17 1006.1 1006.1 0.0
01/01:30am 28.6 28.8 22.8 71 3.9 WSW 26 32 14 17 1006.2 1006.2 0.0
01/01:00am 29.0 28.4 23.4 72 3.9 W 32 39 17 21 1006.1 1006.1 0.0
01/12:30am 29.4 29.7 23.6 71 4.0 W 28 35 15 19 1006.7 1006.7 0.0
01/12:00am 29.4 30.2 24.5 75 3.4 W 28 33 15 18 1006.9 1006.9 0.0
 
Date/Time
WST
Temp
°C
App
Temp
°C
Dew
Point
°C
Rel
Hum
%
Delta-T
°C
Wind Press
QNH
hPa
Press
MSL
hPa
Rain since
9am
mm
Dir  Spd
km/h
Gust
km/h
Spd
kts
Gust
kts
30/11:30pm 29.5 30.4 24.6 75 3.4 W 28 35 15 19 1006.9 1006.9 0.0
30/11:00pm 29.6 31.2 24.5 74 3.6 W 24 32 13 17 1007.0 1007.0 0.0
30/10:30pm 29.7 30.4 24.3 73 3.8 W 28 32 15 17 1007.0 1007.0 0.0
30/10:00pm 29.8 30.6 24.4 73 3.8 W 28 33 15 18 1007.3 1007.3 0.0
30/09:30pm 29.9 30.8 23.3 67 4.5 W 24 32 13 17 1007.2 1007.2 0.0
30/09:00pm 30.1 29.9 22.8 65 5.0 W 28 35 15 19 1006.7 1006.7 0.0
30/08:30pm 30.1 29.9 22.8 65 5.0 W 28 35 15 19 1006.3 1006.3 0.0
30/08:00pm 30.0 30.1 23.2 67 4.7 W 28 35 15 19 1006.1 1006.1 0.0
30/07:30pm 30.1 29.3 23.0 65 4.9 W 32 37 17 20 1005.9 1005.9 0.0
30/07:00pm 30.9 29.8 21.7 58 6.2 W 30 37 16 20 1005.7 1005.7 0.0
30/06:30pm 32.1 30.1 20.7 51 7.6 W 32 41 17 22 1005.3 1005.3 0.0
30/06:00pm 32.9 31.1 20.4 47 8.4 WNW 30 39 16 21 1004.8 1004.8 0.0
30/05:30pm 34.3 31.3 19.1 40 10.0 W 33 41 18 22 1004.5 1004.5 0.0
30/05:00pm 34.6 30.4 19.0 39 10.3 W 39 44 21 24 1004.2 1004.2 0.0
30/04:30pm 34.5 32.2 21.2 46 9.0 W 35 43 19 23 1004.1 1004.1 0.0
30/04:00pm 35.7 33.5 20.4 40 10.3 W 32 39 17 21 1004.1 1004.1 0.0
30/03:30pm 35.1 36.0 23.4 50 8.1 WNW 24 32 13 17 1004.4 1004.4 0.0
30/03:00pm 34.0 34.5 24.0 56 7.0 NW 28 35 15 19 1004.6 1004.6 0.0

Other Formats:

Comma delimited format used in spreadsheet applications
http://www.bom.gov.au/fwo/IDW60801/IDW60801.95307.axf

JavaScript Object Notation format (JSON) in row-major order
http://www.bom.gov.au/fwo/IDW60801/IDW60801.95307.json